sensor_id;sensor_type;location;lat;lon;timestamp;P1;durP1;ratioP1;P2;durP2;ratioP2
1382;SDS011;685;47.196;11.880;2023-03-13T00:00:59;6.40;;;5.20;;
1382;SDS011;685;47.196;11.880;2023-03-13T00:03:27;12.47;;;8.60;;
1382;SDS011;685;47.196;11.880;2023-03-13T00:05:55;12.93;;;8.33;;
1382;SDS011;685;47.196;11.880;2023-03-13T00:08:22;9.13;;;6.70;;
1382;SDS011;685;47.196;11.880;2023-03-13T00:10:49;9.77;;;6.33;;
1382;SDS011;685;47.196;11.880;2023-03-13T00:13:18;6.37;;;4.57;;
1382;SDS011;685;47.196;11.880;2023-03-13T00:15:45;7.23;;;4.93;;
1382;SDS011;685;47.196;11.880;2023-03-13T00:18:12;10.20;;;5.50;;
1382;SDS011;685;47.196;11.880;2023-03-13T00:20:39;30.67;;;5.90;;
1382;SDS011;685;47.196;11.880;2023-03-13T00:23:06;5.23;;;4.50;;
1382;SDS011;685;47.196;11.880;2023-03-13T00:25:32;5.63;;;4.93;;
1382;SDS011;685;47.196;11.880;2023-03-13T00:27:59;6.73;;;5.83;;
1382;SDS011;685;47.196;11.880;2023-03-13T00:30:28;26.23;;;7.60;;
1382;SDS011;685;47.196;11.880;2023-03-13T00:32:54;31.17;;;8.20;;
1382;SDS011;685;47.196;11.880;2023-03-13T00:35:21;8.93;;;6.20;;
1382;SDS011;685;47.196;11.880;2023-03-13T00:37:48;6.63;;;5.20;;
1382;SDS011;685;47.196;11.880;2023-03-13T00:40:16;8.77;;;6.07;;
1382;SDS011;685;47.196;11.880;2023-03-13T00:42:44;6.73;;;5.10;;
1382;SDS011;685;47.196;11.880;2023-03-13T00:45:11;13.90;;;6.23;;
1382;SDS011;685;47.196;11.880;2023-03-13T00:47:39;12.93;;;6.33;;
1382;SDS011;685;47.196;11.880;2023-03-13T00:50:06;8.03;;;5.20;;
1382;SDS011;685;47.196;11.880;2023-03-13T00:52:33;7.10;;;5.07;;
1382;SDS011;685;47.196;11.880;2023-03-13T00:55:00;16.53;;;6.33;;
1382;SDS011;685;47.196;11.880;2023-03-13T00:57:28;17.13;;;6.03;;
1382;SDS011;685;47.196;11.880;2023-03-13T00:59:55;10.50;;;5.53;;
1382;SDS011;685;47.196;11.880;2023-03-13T01:02:22;8.00;;;5.53;;
1382;SDS011;685;47.196;11.880;2023-03-13T01:04:50;6.67;;;5.17;;
1382;SDS011;685;47.196;11.880;2023-03-13T01:07:18;7.70;;;4.40;;
1382;SDS011;685;47.196;11.880;2023-03-13T01:09:45;40.27;;;7.43;;
1382;SDS011;685;47.196;11.880;2023-03-13T01:12:12;8.40;;;4.20;;
1382;SDS011;685;47.196;11.880;2023-03-13T01:14:38;4.67;;;3.50;;
1382;SDS011;685;47.196;11.880;2023-03-13T01:17:05;6.83;;;3.70;;
1382;SDS011;685;47.196;11.880;2023-03-13T01:19:32;4.03;;;3.53;;
1382;SDS011;685;47.196;11.880;2023-03-13T01:22:00;6.00;;;4.00;;
1382;SDS011;685;47.196;11.880;2023-03-13T01:24:27;6.30;;;3.67;;
1382;SDS011;685;47.196;11.880;2023-03-13T01:26:54;4.63;;;3.27;;
1382;SDS011;685;47.196;11.880;2023-03-13T01:29:21;3.13;;;2.90;;
1382;SDS011;685;47.196;11.880;2023-03-13T01:31:48;5.93;;;3.50;;
1382;SDS011;685;47.196;11.880;2023-03-13T01:34:15;3.47;;;3.17;;
1382;SDS011;685;47.196;11.880;2023-03-13T01:36:41;5.07;;;3.30;;
1382;SDS011;685;47.196;11.880;2023-03-13T01:39:10;3.10;;;2.70;;
1382;SDS011;685;47.196;11.880;2023-03-13T01:41:37;4.30;;;3.70;;
1382;SDS011;685;47.196;11.880;2023-03-13T01:44:04;3.47;;;3.17;;
1382;SDS011;685;47.196;11.880;2023-03-13T01:46:31;7.97;;;3.77;;
1382;SDS011;685;47.196;11.880;2023-03-13T01:48:59;17.20;;;4.77;;
1382;SDS011;685;47.196;11.880;2023-03-13T01:51:31;9.80;;;3.53;;
1382;SDS011;685;47.196;11.880;2023-03-13T01:54:02;9.33;;;3.60;;
1382;SDS011;685;47.196;11.880;2023-03-13T01:56:35;4.20;;;3.60;;
1382;SDS011;685;47.196;11.880;2023-03-13T01:59:05;7.80;;;3.90;;
1382;SDS011;685;47.196;11.880;2023-03-13T02:01:35;15.07;;;4.03;;
1382;SDS011;685;47.196;11.880;2023-03-13T02:04:04;11.13;;;4.43;;
1382;SDS011;685;47.196;11.880;2023-03-13T02:06:32;5.10;;;3.70;;
1382;SDS011;685;47.196;11.880;2023-03-13T02:09:04;4.27;;;3.80;;
1382;SDS011;685;47.196;11.880;2023-03-13T02:11:38;2.00;;;1.80;;
1382;SDS011;685;47.196;11.880;2023-03-13T02:14:12;3.37;;;2.43;;
1382;SDS011;685;47.196;11.880;2023-03-13T02:16:41;7.63;;;3.07;;
1382;SDS011;685;47.196;11.880;2023-03-13T02:19:15;5.27;;;2.70;;
1382;SDS011;685;47.196;11.880;2023-03-13T02:21:45;2.93;;;2.70;;
1382;SDS011;685;47.196;11.880;2023-03-13T02:24:17;2.07;;;1.87;;
1382;SDS011;685;47.196;11.880;2023-03-13T02:26:56;2.20;;;1.90;;
1382;SDS011;685;47.196;11.880;2023-03-13T02:29:23;2.80;;;2.40;;
1382;SDS011;685;47.196;11.880;2023-03-13T02:31:50;2.37;;;2.13;;
1382;SDS011;685;47.196;11.880;2023-03-13T02:34:20;2.97;;;2.57;;
1382;SDS011;685;47.196;11.880;2023-03-13T02:36:49;2.83;;;2.63;;
1382;SDS011;685;47.196;11.880;2023-03-13T02:39:18;2.90;;;2.60;;
1382;SDS011;685;47.196;11.880;2023-03-13T02:41:47;12.70;;;3.03;;
1382;SDS011;685;47.196;11.880;2023-03-13T02:44:16;14.17;;;4.93;;
1382;SDS011;685;47.196;11.880;2023-03-13T02:46:44;10.87;;;4.20;;
1382;SDS011;685;47.196;11.880;2023-03-13T02:49:19;6.37;;;3.23;;
1382;SDS011;685;47.196;11.880;2023-03-13T02:51:48;12.10;;;4.33;;
1382;SDS011;685;47.196;11.880;2023-03-13T02:54:17;2.27;;;1.83;;
1382;SDS011;685;47.196;11.880;2023-03-13T02:56:48;2.40;;;2.20;;
1382;SDS011;685;47.196;11.880;2023-03-13T02:59:21;8.90;;;6.60;;
1382;SDS011;685;47.196;11.880;2023-03-13T03:01:48;28.80;;;5.90;;
1382;SDS011;685;47.196;11.880;2023-03-13T03:04:17;39.57;;;5.97;;
1382;SDS011;685;47.196;11.880;2023-03-13T03:06:45;4.83;;;3.70;;
1382;SDS011;685;47.196;11.880;2023-03-13T03:09:12;5.50;;;3.60;;
1382;SDS011;685;47.196;11.880;2023-03-13T03:11:38;28.77;;;6.73;;
1382;SDS011;685;47.196;11.880;2023-03-13T03:14:05;11.43;;;4.50;;
1382;SDS011;685;47.196;11.880;2023-03-13T03:16:34;13.53;;;5.40;;
1382;SDS011;685;47.196;11.880;2023-03-13T03:19:01;41.67;;;7.23;;
1382;SDS011;685;47.196;11.880;2023-03-13T03:21:28;18.67;;;4.90;;
1382;SDS011;685;47.196;11.880;2023-03-13T03:23:55;18.60;;;4.77;;
1382;SDS011;685;47.196;11.880;2023-03-13T03:26:22;7.50;;;3.40;;
1382;SDS011;685;47.196;11.880;2023-03-13T03:28:49;3.80;;;3.33;;
1382;SDS011;685;47.196;11.880;2023-03-13T03:31:16;16.80;;;4.77;;
1382;SDS011;685;47.196;11.880;2023-03-13T03:33:45;13.57;;;4.07;;
1382;SDS011;685;47.196;11.880;2023-03-13T03:36:12;6.87;;;3.40;;
1382;SDS011;685;47.196;11.880;2023-03-13T03:38:41;3.37;;;2.70;;
1382;SDS011;685;47.196;11.880;2023-03-13T03:41:08;3.23;;;2.50;;
1382;SDS011;685;47.196;11.880;2023-03-13T03:43:35;3.30;;;2.83;;
1382;SDS011;685;47.196;11.880;2023-03-13T03:46:02;4.40;;;2.73;;
1382;SDS011;685;47.196;11.880;2023-03-13T03:48:30;3.50;;;3.20;;
1382;SDS011;685;47.196;11.880;2023-03-13T03:50:58;4.97;;;3.10;;
1382;SDS011;685;47.196;11.880;2023-03-13T03:53:25;4.77;;;3.87;;
1382;SDS011;685;47.196;11.880;2023-03-13T03:55:53;3.50;;;2.90;;
1382;SDS011;685;47.196;11.880;2023-03-13T03:58:20;3.27;;;2.00;;
1382;SDS011;685;47.196;11.880;2023-03-13T04:00:47;3.27;;;2.33;;
1382;SDS011;685;47.196;11.880;2023-03-13T04:03:14;3.63;;;3.17;;
1382;SDS011;685;47.196;11.880;2023-03-13T04:05:42;3.53;;;2.60;;
1382;SDS011;685;47.196;11.880;2023-03-13T04:08:10;6.40;;;3.27;;
1382;SDS011;685;47.196;11.880;2023-03-13T04:10:37;7.40;;;3.60;;
1382;SDS011;685;47.196;11.880;2023-03-13T04:13:04;36.07;;;6.40;;
1382;SDS011;685;47.196;11.880;2023-03-13T04:15:31;23.20;;;5.37;;
1382;SDS011;685;47.196;11.880;2023-03-13T04:17:58;5.93;;;3.50;;
1382;SDS011;685;47.196;11.880;2023-03-13T04:20:25;18.20;;;6.40;;
1382;SDS011;685;47.196;11.880;2023-03-13T04:22:52;24.97;;;5.87;;
1382;SDS011;685;47.196;11.880;2023-03-13T04:25:21;29.07;;;6.27;;
1382;SDS011;685;47.196;11.880;2023-03-13T04:27:48;6.80;;;4.90;;
1382;SDS011;685;47.196;11.880;2023-03-13T04:30:15;13.47;;;5.20;;
1382;SDS011;685;47.196;11.880;2023-03-13T04:32:42;16.97;;;5.00;;
1382;SDS011;685;47.196;11.880;2023-03-13T04:35:09;4.83;;;3.37;;
1382;SDS011;685;47.196;11.880;2023-03-13T04:37:36;4.20;;;3.40;;
1382;SDS011;685;47.196;11.880;2023-03-13T04:40:03;4.20;;;3.70;;
1382;SDS011;685;47.196;11.880;2023-03-13T04:42:33;5.87;;;3.60;;
1382;SDS011;685;47.196;11.880;2023-03-13T04:45:00;13.03;;;3.87;;
1382;SDS011;685;47.196;11.880;2023-03-13T04:47:27;3.30;;;2.80;;
1382;SDS011;685;47.196;11.880;2023-03-13T04:49:53;3.67;;;3.27;;
1382;SDS011;685;47.196;11.880;2023-03-13T04:52:20;4.77;;;3.37;;
1382;SDS011;685;47.196;11.880;2023-03-13T04:54:47;4.57;;;3.50;;
1382;SDS011;685;47.196;11.880;2023-03-13T04:57:15;4.40;;;2.83;;
1382;SDS011;685;47.196;11.880;2023-03-13T04:59:44;4.63;;;4.23;;
1382;SDS011;685;47.196;11.880;2023-03-13T05:02:11;6.67;;;4.00;;
1382;SDS011;685;47.196;11.880;2023-03-13T05:04:38;5.50;;;3.87;;
1382;SDS011;685;47.196;11.880;2023-03-13T05:07:05;4.70;;;3.90;;
1382;SDS011;685;47.196;11.880;2023-03-13T05:09:32;8.80;;;6.50;;
1382;SDS011;685;47.196;11.880;2023-03-13T05:11:59;6.40;;;5.13;;
1382;SDS011;685;47.196;11.880;2023-03-13T05:14:26;4.13;;;3.73;;
1382;SDS011;685;47.196;11.880;2023-03-13T05:16:54;4.80;;;3.67;;
1382;SDS011;685;47.196;11.880;2023-03-13T05:19:21;5.23;;;3.70;;
1382;SDS011;685;47.196;11.880;2023-03-13T05:21:48;5.67;;;5.17;;
1382;SDS011;685;47.196;11.880;2023-03-13T05:24:14;9.30;;;8.57;;
1382;SDS011;685;47.196;11.880;2023-03-13T05:26:41;4.17;;;3.87;;
1382;SDS011;685;47.196;11.880;2023-03-13T05:29:08;5.23;;;4.63;;
1382;SDS011;685;47.196;11.880;2023-03-13T05:31:35;5.60;;;5.10;;
1382;SDS011;685;47.196;11.880;2023-03-13T05:34:03;10.07;;;5.93;;
1382;SDS011;685;47.196;11.880;2023-03-13T05:36:30;5.63;;;4.87;;
1382;SDS011;685;47.196;11.880;2023-03-13T05:38:57;6.60;;;5.27;;
1382;SDS011;685;47.196;11.880;2023-03-13T05:41:24;9.10;;;5.47;;
1382;SDS011;685;47.196;11.880;2023-03-13T05:43:51;6.23;;;5.40;;
1382;SDS011;685;47.196;11.880;2023-03-13T05:46:18;5.70;;;4.70;;
1382;SDS011;685;47.196;11.880;2023-03-13T05:48:45;5.30;;;4.00;;
1382;SDS011;685;47.196;11.880;2023-03-13T05:51:13;6.80;;;5.07;;
1382;SDS011;685;47.196;11.880;2023-03-13T05:53:40;9.10;;;5.37;;
1382;SDS011;685;47.196;11.880;2023-03-13T05:56:07;7.17;;;5.90;;
1382;SDS011;685;47.196;11.880;2023-03-13T05:58:34;8.87;;;5.90;;
1382;SDS011;685;47.196;11.880;2023-03-13T06:01:05;5.77;;;4.87;;
1382;SDS011;685;47.196;11.880;2023-03-13T06:03:32;5.10;;;4.60;;
1382;SDS011;685;47.196;11.880;2023-03-13T06:05:59;8.03;;;6.07;;
1382;SDS011;685;47.196;11.880;2023-03-13T06:08:28;9.47;;;7.90;;
1382;SDS011;685;47.196;11.880;2023-03-13T06:10:57;6.77;;;6.07;;
1382;SDS011;685;47.196;11.880;2023-03-13T06:13:24;7.47;;;6.20;;
1382;SDS011;685;47.196;11.880;2023-03-13T06:15:51;7.50;;;5.80;;
1382;SDS011;685;47.196;11.880;2023-03-13T06:18:19;14.10;;;11.80;;
1382;SDS011;685;47.196;11.880;2023-03-13T06:20:46;6.77;;;6.13;;
1382;SDS011;685;47.196;11.880;2023-03-13T06:23:13;6.80;;;5.73;;
1382;SDS011;685;47.196;11.880;2023-03-13T06:25:42;5.90;;;5.30;;
1382;SDS011;685;47.196;11.880;2023-03-13T06:28:12;7.93;;;5.20;;
1382;SDS011;685;47.196;11.880;2023-03-13T06:30:39;10.40;;;7.00;;
1382;SDS011;685;47.196;11.880;2023-03-13T06:33:06;10.57;;;9.20;;
1382;SDS011;685;47.196;11.880;2023-03-13T06:35:33;8.23;;;6.73;;
1382;SDS011;685;47.196;11.880;2023-03-13T06:38:00;10.53;;;7.40;;
1382;SDS011;685;47.196;11.880;2023-03-13T06:40:27;7.53;;;6.77;;
1382;SDS011;685;47.196;11.880;2023-03-13T06:42:55;7.83;;;5.53;;
1382;SDS011;685;47.196;11.880;2023-03-13T06:45:22;7.17;;;6.47;;
1382;SDS011;685;47.196;11.880;2023-03-13T06:47:49;6.40;;;5.33;;
1382;SDS011;685;47.196;11.880;2023-03-13T06:50:16;10.50;;;9.23;;
1382;SDS011;685;47.196;11.880;2023-03-13T06:52:44;9.40;;;7.20;;
1382;SDS011;685;47.196;11.880;2023-03-13T06:55:11;5.43;;;4.80;;
1382;SDS011;685;47.196;11.880;2023-03-13T06:57:39;6.63;;;4.50;;
1382;SDS011;685;47.196;11.880;2023-03-13T07:00:08;6.07;;;4.80;;
1382;SDS011;685;47.196;11.880;2023-03-13T07:02:37;7.30;;;5.30;;
1382;SDS011;685;47.196;11.880;2023-03-13T07:05:05;6.47;;;5.77;;
1382;SDS011;685;47.196;11.880;2023-03-13T07:07:33;5.87;;;5.37;;
1382;SDS011;685;47.196;11.880;2023-03-13T07:10:00;6.70;;;5.90;;
1382;SDS011;685;47.196;11.880;2023-03-13T07:12:27;6.30;;;5.67;;
1382;SDS011;685;47.196;11.880;2023-03-13T07:14:54;6.60;;;6.00;;
1382;SDS011;685;47.196;11.880;2023-03-13T07:17:22;6.23;;;5.63;;
1382;SDS011;685;47.196;11.880;2023-03-13T07:19:49;4.73;;;4.20;;
1382;SDS011;685;47.196;11.880;2023-03-13T07:22:16;12.43;;;6.03;;
1382;SDS011;685;47.196;11.880;2023-03-13T07:24:43;5.87;;;4.90;;
1382;SDS011;685;47.196;11.880;2023-03-13T07:27:10;4.77;;;4.00;;
1382;SDS011;685;47.196;11.880;2023-03-13T07:29:37;4.40;;;4.00;;
1382;SDS011;685;47.196;11.880;2023-03-13T07:32:05;4.27;;;3.87;;
1382;SDS011;685;47.196;11.880;2023-03-13T07:34:33;5.33;;;4.70;;
1382;SDS011;685;47.196;11.880;2023-03-13T07:37:00;4.87;;;4.40;;
1382;SDS011;685;47.196;11.880;2023-03-13T07:39:27;5.40;;;4.50;;
1382;SDS011;685;47.196;11.880;2023-03-13T07:41:54;6.07;;;4.80;;
1382;SDS011;685;47.196;11.880;2023-03-13T07:44:21;5.10;;;4.43;;
1382;SDS011;685;47.196;11.880;2023-03-13T07:46:48;7.60;;;5.33;;
1382;SDS011;685;47.196;11.880;2023-03-13T07:49:15;6.43;;;5.63;;
1382;SDS011;685;47.196;11.880;2023-03-13T07:51:43;5.77;;;4.87;;
1382;SDS011;685;47.196;11.880;2023-03-13T07:54:12;6.20;;;5.60;;
1382;SDS011;685;47.196;11.880;2023-03-13T07:56:39;6.70;;;5.80;;
1382;SDS011;685;47.196;11.880;2023-03-13T07:59:06;5.70;;;5.20;;
1382;SDS011;685;47.196;11.880;2023-03-13T08:01:33;5.53;;;5.00;;
1382;SDS011;685;47.196;11.880;2023-03-13T08:04:00;5.37;;;4.40;;
1382;SDS011;685;47.196;11.880;2023-03-13T08:06:28;6.30;;;4.30;;
1382;SDS011;685;47.196;11.880;2023-03-13T08:08:58;5.90;;;4.40;;
1382;SDS011;685;47.196;11.880;2023-03-13T08:11:25;4.03;;;3.73;;
1382;SDS011;685;47.196;11.880;2023-03-13T08:13:54;5.93;;;4.30;;
1382;SDS011;685;47.196;11.880;2023-03-13T08:16:22;17.47;;;13.63;;
1382;SDS011;685;47.196;11.880;2023-03-13T08:18:51;24.47;;;17.87;;
1382;SDS011;685;47.196;11.880;2023-03-13T08:21:21;5.60;;;4.50;;
1382;SDS011;685;47.196;11.880;2023-03-13T08:23:51;4.60;;;3.97;;
1382;SDS011;685;47.196;11.880;2023-03-13T08:26:21;17.10;;;10.23;;
1382;SDS011;685;47.196;11.880;2023-03-13T08:28:50;8.23;;;4.50;;
1382;SDS011;685;47.196;11.880;2023-03-13T08:31:20;6.17;;;2.57;;
1382;SDS011;685;47.196;11.880;2023-03-13T08:33:48;4.80;;;4.17;;
1382;SDS011;685;47.196;11.880;2023-03-13T08:36:16;5.13;;;4.63;;
1382;SDS011;685;47.196;11.880;2023-03-13T08:38:45;4.47;;;3.97;;
1382;SDS011;685;47.196;11.880;2023-03-13T08:41:13;5.90;;;4.90;;
1382;SDS011;685;47.196;11.880;2023-03-13T08:43:42;3.87;;;3.47;;
1382;SDS011;685;47.196;11.880;2023-03-13T08:46:10;5.03;;;3.10;;
1382;SDS011;685;47.196;11.880;2023-03-13T08:48:37;3.80;;;3.50;;
1382;SDS011;685;47.196;11.880;2023-03-13T08:51:05;5.13;;;4.17;;
1382;SDS011;685;47.196;11.880;2023-03-13T08:53:33;4.23;;;3.80;;
1382;SDS011;685;47.196;11.880;2023-03-13T08:56:01;2.47;;;2.27;;
1382;SDS011;685;47.196;11.880;2023-03-13T08:58:29;2.20;;;2.00;;
1382;SDS011;685;47.196;11.880;2023-03-13T09:01:01;3.77;;;2.70;;
1382;SDS011;685;47.196;11.880;2023-03-13T09:03:29;2.63;;;1.67;;
1382;SDS011;685;47.196;11.880;2023-03-13T09:05:56;2.00;;;1.80;;
1382;SDS011;685;47.196;11.880;2023-03-13T09:08:24;2.23;;;1.80;;
1382;SDS011;685;47.196;11.880;2023-03-13T09:10:54;2.60;;;2.40;;
1382;SDS011;685;47.196;11.880;2023-03-13T09:13:21;2.30;;;1.97;;
1382;SDS011;685;47.196;11.880;2023-03-13T09:15:52;2.00;;;1.80;;
1382;SDS011;685;47.196;11.880;2023-03-13T09:18:21;3.27;;;2.33;;
1382;SDS011;685;47.196;11.880;2023-03-13T09:20:48;3.23;;;2.63;;
1382;SDS011;685;47.196;11.880;2023-03-13T09:23:16;3.13;;;2.30;;
1382;SDS011;685;47.196;11.880;2023-03-13T09:25:44;2.90;;;2.40;;
1382;SDS011;685;47.196;11.880;2023-03-13T09:28:11;2.23;;;1.90;;
1382;SDS011;685;47.196;11.880;2023-03-13T09:30:38;3.67;;;2.07;;
1382;SDS011;685;47.196;11.880;2023-03-13T09:33:05;3.27;;;1.87;;
1382;SDS011;685;47.196;11.880;2023-03-13T09:35:33;2.23;;;2.00;;
1382;SDS011;685;47.196;11.880;2023-03-13T09:38:00;3.43;;;1.93;;
1382;SDS011;685;47.196;11.880;2023-03-13T09:40:27;3.20;;;2.20;;
1382;SDS011;685;47.196;11.880;2023-03-13T09:42:55;3.00;;;2.30;;
1382;SDS011;685;47.196;11.880;2023-03-13T09:45:27;2.33;;;2.03;;
1382;SDS011;685;47.196;11.880;2023-03-13T09:47:58;4.93;;;2.67;;
1382;SDS011;685;47.196;11.880;2023-03-13T09:50:30;5.90;;;1.97;;
1382;SDS011;685;47.196;11.880;2023-03-13T09:53:02;4.40;;;2.40;;
1382;SDS011;685;47.196;11.880;2023-03-13T09:55:38;3.17;;;2.03;;
1382;SDS011;685;47.196;11.880;2023-03-13T09:58:09;2.73;;;2.17;;
1382;SDS011;685;47.196;11.880;2023-03-13T10:00:40;2.90;;;2.57;;
1382;SDS011;685;47.196;11.880;2023-03-13T10:03:12;2.90;;;2.00;;
1382;SDS011;685;47.196;11.880;2023-03-13T10:05:45;2.40;;;2.20;;
1382;SDS011;685;47.196;11.880;2023-03-13T10:08:15;2.40;;;2.20;;
1382;SDS011;685;47.196;11.880;2023-03-13T10:10:46;2.57;;;2.03;;
1382;SDS011;685;47.196;11.880;2023-03-13T10:13:18;2.90;;;2.70;;
1382;SDS011;685;47.196;11.880;2023-03-13T10:15:50;3.30;;;2.43;;
1382;SDS011;685;47.196;11.880;2023-03-13T10:18:21;2.80;;;2.50;;
1382;SDS011;685;47.196;11.880;2023-03-13T10:20:50;3.13;;;2.43;;
1382;SDS011;685;47.196;11.880;2023-03-13T10:23:20;3.83;;;2.50;;
1382;SDS011;685;47.196;11.880;2023-03-13T10:25:52;3.63;;;2.70;;
1382;SDS011;685;47.196;11.880;2023-03-13T10:28:19;2.93;;;2.40;;
1382;SDS011;685;47.196;11.880;2023-03-13T10:30:47;4.23;;;2.37;;
1382;SDS011;685;47.196;11.880;2023-03-13T10:33:26;2.70;;;2.37;;
1382;SDS011;685;47.196;11.880;2023-03-13T10:36:03;3.20;;;2.03;;
1382;SDS011;685;47.196;11.880;2023-03-13T10:38:33;2.80;;;1.67;;
1382;SDS011;685;47.196;11.880;2023-03-13T10:41:17;1.97;;;1.50;;
1382;SDS011;685;47.196;11.880;2023-03-13T10:43:49;2.13;;;1.40;;
1382;SDS011;685;47.196;11.880;2023-03-13T10:46:24;2.20;;;1.70;;
1382;SDS011;685;47.196;11.880;2023-03-13T10:48:53;3.23;;;2.60;;
1382;SDS011;685;47.196;11.880;2023-03-13T10:51:22;5.37;;;1.97;;
1382;SDS011;685;47.196;11.880;2023-03-13T10:53:55;2.40;;;2.20;;
1382;SDS011;685;47.196;11.880;2023-03-13T10:56:22;26.03;;;19.57;;
1382;SDS011;685;47.196;11.880;2023-03-13T10:58:54;10.87;;;7.60;;
1382;SDS011;685;47.196;11.880;2023-03-13T11:01:22;12.43;;;7.20;;
1382;SDS011;685;47.196;11.880;2023-03-13T11:03:51;7.30;;;5.07;;
1382;SDS011;685;47.196;11.880;2023-03-13T11:06:24;11.30;;;6.63;;
1382;SDS011;685;47.196;11.880;2023-03-13T11:11:43;4.90;;;2.10;;
1382;SDS011;685;47.196;11.880;2023-03-13T11:14:13;5.37;;;2.30;;
1382;SDS011;685;47.196;11.880;2023-03-13T11:16:43;2.20;;;2.00;;
1382;SDS011;685;47.196;11.880;2023-03-13T11:19:31;3.10;;;2.00;;
1382;SDS011;685;47.196;11.880;2023-03-13T11:22:12;2.13;;;1.93;;
1382;SDS011;685;47.196;11.880;2023-03-13T11:24:48;1.57;;;1.47;;
1382;SDS011;685;47.196;11.880;2023-03-13T11:27:25;3.33;;;2.23;;
1382;SDS011;685;47.196;11.880;2023-03-13T11:29:57;2.77;;;1.90;;
1382;SDS011;685;47.196;11.880;2023-03-13T11:32:41;2.03;;;1.63;;
1382;SDS011;685;47.196;11.880;2023-03-13T11:35:16;3.00;;;2.70;;
1382;SDS011;685;47.196;11.880;2023-03-13T11:37:48;3.10;;;2.13;;
1382;SDS011;685;47.196;11.880;2023-03-13T11:40:21;4.63;;;2.10;;
1382;SDS011;685;47.196;11.880;2023-03-13T11:43:12;2.90;;;2.37;;
1382;SDS011;685;47.196;11.880;2023-03-13T11:45:54;3.13;;;2.23;;
1382;SDS011;685;47.196;11.880;2023-03-13T11:48:44;4.33;;;2.93;;
1382;SDS011;685;47.196;11.880;2023-03-13T11:51:23;3.50;;;2.63;;
1382;SDS011;685;47.196;11.880;2023-03-13T11:54:09;3.50;;;1.97;;
1382;SDS011;685;47.196;11.880;2023-03-13T11:56:49;3.20;;;1.97;;
1382;SDS011;685;47.196;11.880;2023-03-13T11:59:24;2.73;;;2.43;;
1382;SDS011;685;47.196;11.880;2023-03-13T12:01:58;4.33;;;2.80;;
1382;SDS011;685;47.196;11.880;2023-03-13T12:04:29;5.20;;;2.67;;
1382;SDS011;685;47.196;11.880;2023-03-13T12:07:02;4.37;;;1.90;;
1382;SDS011;685;47.196;11.880;2023-03-13T12:09:36;1.83;;;1.50;;
1382;SDS011;685;47.196;11.880;2023-03-13T12:12:10;2.53;;;2.00;;
1382;SDS011;685;47.196;11.880;2023-03-13T12:14:44;3.67;;;2.30;;
1382;SDS011;685;47.196;11.880;2023-03-13T12:17:16;2.63;;;1.80;;
1382;SDS011;685;47.196;11.880;2023-03-13T12:19:52;2.33;;;1.90;;
1382;SDS011;685;47.196;11.880;2023-03-13T12:22:26;3.23;;;2.10;;
1382;SDS011;685;47.196;11.880;2023-03-13T12:25:00;4.53;;;2.60;;
1382;SDS011;685;47.196;11.880;2023-03-13T12:27:32;2.80;;;2.07;;
1382;SDS011;685;47.196;11.880;2023-03-13T12:30:02;3.50;;;2.70;;
1382;SDS011;685;47.196;11.880;2023-03-13T12:32:40;2.70;;;2.43;;
1382;SDS011;685;47.196;11.880;2023-03-13T12:35:14;2.63;;;2.23;;
1382;SDS011;685;47.196;11.880;2023-03-13T12:37:45;4.90;;;3.47;;
1382;SDS011;685;47.196;11.880;2023-03-13T12:40:20;3.00;;;2.70;;
1382;SDS011;685;47.196;11.880;2023-03-13T12:42:55;3.60;;;3.00;;
1382;SDS011;685;47.196;11.880;2023-03-13T12:45:29;4.17;;;2.37;;
1382;SDS011;685;47.196;11.880;2023-03-13T12:50:50;3.20;;;2.70;;
1382;SDS011;685;47.196;11.880;2023-03-13T12:53:33;4.17;;;2.77;;
1382;SDS011;685;47.196;11.880;2023-03-13T12:59:13;4.23;;;2.40;;
1382;SDS011;685;47.196;11.880;2023-03-13T13:01:44;6.97;;;3.10;;
1382;SDS011;685;47.196;11.880;2023-03-13T13:04:16;3.13;;;2.83;;
1382;SDS011;685;47.196;11.880;2023-03-13T13:06:57;4.30;;;2.50;;
1382;SDS011;685;47.196;11.880;2023-03-13T13:09:27;2.97;;;2.77;;
1382;SDS011;685;47.196;11.880;2023-03-13T13:11:58;4.53;;;2.73;;
1382;SDS011;685;47.196;11.880;2023-03-13T13:17:45;3.50;;;3.20;;
1382;SDS011;685;47.196;11.880;2023-03-13T13:20:29;3.30;;;3.00;;
1382;SDS011;685;47.196;11.880;2023-03-13T13:32:18;5.33;;;3.10;;
1382;SDS011;685;47.196;11.880;2023-03-13T13:35:22;3.20;;;2.90;;
1382;SDS011;685;47.196;11.880;2023-03-13T13:41:19;3.60;;;2.90;;
1382;SDS011;685;47.196;11.880;2023-03-13T13:44:13;8.90;;;3.47;;
1382;SDS011;685;47.196;11.880;2023-03-13T13:46:47;5.60;;;2.40;;
1382;SDS011;685;47.196;11.880;2023-03-13T13:49:16;2.53;;;1.90;;
1382;SDS011;685;47.196;11.880;2023-03-13T13:55:02;4.73;;;3.07;;
1382;SDS011;685;47.196;11.880;2023-03-13T13:57:44;3.60;;;3.30;;
1382;SDS011;685;47.196;11.880;2023-03-13T14:00:15;3.10;;;2.80;;
1382;SDS011;685;47.196;11.880;2023-03-13T14:02:47;3.77;;;2.90;;
1382;SDS011;685;47.196;11.880;2023-03-13T14:05:19;3.50;;;2.60;;
1382;SDS011;685;47.196;11.880;2023-03-13T14:07:49;4.40;;;2.90;;
1382;SDS011;685;47.196;11.880;2023-03-13T14:10:24;3.30;;;2.50;;
1382;SDS011;685;47.196;11.880;2023-03-13T14:13:11;3.00;;;2.70;;
1382;SDS011;685;47.196;11.880;2023-03-13T14:15:41;4.80;;;2.03;;
1382;SDS011;685;47.196;11.880;2023-03-13T14:18:10;2.20;;;2.00;;
1382;SDS011;685;47.196;11.880;2023-03-13T14:20:49;3.90;;;3.10;;
1382;SDS011;685;47.196;11.880;2023-03-13T14:23:28;2.60;;;2.30;;
1382;SDS011;685;47.196;11.880;2023-03-13T14:25:58;3.00;;;2.10;;
1382;SDS011;685;47.196;11.880;2023-03-13T14:28:37;3.13;;;2.20;;
1382;SDS011;685;47.196;11.880;2023-03-13T14:31:05;2.30;;;1.90;;
1382;SDS011;685;47.196;11.880;2023-03-13T14:33:32;5.40;;;3.00;;
1382;SDS011;685;47.196;11.880;2023-03-13T14:36:01;2.87;;;1.70;;
1382;SDS011;685;47.196;11.880;2023-03-13T14:38:28;2.87;;;2.43;;
1382;SDS011;685;47.196;11.880;2023-03-13T14:40:57;3.47;;;2.27;;
1382;SDS011;685;47.196;11.880;2023-03-13T14:43:27;3.80;;;0.97;;
1382;SDS011;685;47.196;11.880;2023-03-13T14:45:57;4.27;;;1.50;;
1382;SDS011;685;47.196;11.880;2023-03-13T14:48:26;8.53;;;1.40;;
1382;SDS011;685;47.196;11.880;2023-03-13T14:50:59;1.40;;;0.80;;
1382;SDS011;685;47.196;11.880;2023-03-13T14:53:33;3.73;;;1.07;;
1382;SDS011;685;47.196;11.880;2023-03-13T14:58:45;5.33;;;2.20;;
1382;SDS011;685;47.196;11.880;2023-03-13T15:01:20;2.80;;;2.60;;
1382;SDS011;685;47.196;11.880;2023-03-13T15:03:50;3.17;;;2.40;;
1382;SDS011;685;47.196;11.880;2023-03-13T15:06:22;6.60;;;3.20;;
1382;SDS011;685;47.196;11.880;2023-03-13T15:11:42;3.50;;;1.80;;
1382;SDS011;685;47.196;11.880;2023-03-13T15:14:32;3.77;;;1.63;;
1382;SDS011;685;47.196;11.880;2023-03-13T15:17:01;6.87;;;1.30;;
1382;SDS011;685;47.196;11.880;2023-03-13T15:19:29;1.40;;;0.70;;
1382;SDS011;685;47.196;11.880;2023-03-13T15:21:57;2.17;;;1.57;;
1382;SDS011;685;47.196;11.880;2023-03-13T15:24:24;2.83;;;0.90;;
1382;SDS011;685;47.196;11.880;2023-03-13T15:26:51;1.30;;;0.97;;
1382;SDS011;685;47.196;11.880;2023-03-13T15:29:18;1.33;;;0.80;;
1382;SDS011;685;47.196;11.880;2023-03-13T15:31:45;1.40;;;0.77;;
1382;SDS011;685;47.196;11.880;2023-03-13T15:34:13;1.30;;;0.90;;
1382;SDS011;685;47.196;11.880;2023-03-13T15:36:40;1.10;;;0.77;;
1382;SDS011;685;47.196;11.880;2023-03-13T15:39:10;1.80;;;1.10;;
1382;SDS011;685;47.196;11.880;2023-03-13T15:41:40;1.70;;;1.10;;
1382;SDS011;685;47.196;11.880;2023-03-13T15:44:07;3.93;;;1.00;;
1382;SDS011;685;47.196;11.880;2023-03-13T15:46:34;1.70;;;1.00;;
1382;SDS011;685;47.196;11.880;2023-03-13T15:49:01;1.17;;;0.83;;
1382;SDS011;685;47.196;11.880;2023-03-13T15:51:29;1.77;;;1.03;;
1382;SDS011;685;47.196;11.880;2023-03-13T15:53:57;2.23;;;0.97;;
1382;SDS011;685;47.196;11.880;2023-03-13T15:56:25;1.70;;;0.90;;
1382;SDS011;685;47.196;11.880;2023-03-13T15:58:59;1.60;;;1.00;;
1382;SDS011;685;47.196;11.880;2023-03-13T16:01:26;1.07;;;0.67;;